Airport View

Enter AWOS ICAO identifier for current METAR.

ex. KFNL

KMDW 100353Z 31011G30KT 170V340 10SM TS FEW032 BKN055CB OVC130 27/19 A2975 RMK AO2 PK WND 32030/0351 LTG DSNT N AND SW TSB48 SLP061 FRQ LTGICCC VC W-NW TS VC W-NW MOV NE T02670194

10 Jul 2020 04:43

Phone: 773-884-4424

Other Area AWOS: KORD - KIGQ - KGYY - KLOT

TAF AMD KMDW 100308Z 1003/1106 18012G18KT P6SM VCTS SCT050CB BKN250 FM100345 29015G25KT 5SM -TSRA SCT020 BKN050CB FM100500 18007KT 6SM -SHRA VCTS SCT020 BKN050CB FM100600 19005KT P6SM VCSH SCT020 BKN050 FM101000 33009KT P6SM -SHRA SCT015 BKN025 FM101400 34015G24KT P6SM BKN035 FM110100 32009KT P6SM FEW050